createdAt,value
2018-01-14T00:01:01.253Z,49.00
2018-01-14T00:03:28.842Z,52.10
2018-01-14T00:05:56.561Z,48.87
2018-01-14T00:08:24.471Z,55.30
2018-01-14T00:10:52.025Z,46.00
2018-01-14T00:13:21.099Z,51.80
2018-01-14T00:15:48.741Z,51.07
2018-01-14T00:18:16.303Z,48.23
2018-01-14T00:20:43.910Z,52.60
2018-01-14T00:23:11.485Z,51.63
2018-01-14T00:25:39.899Z,47.60
2018-01-14T00:28:07.470Z,53.13
2018-01-14T00:30:35.578Z,55.80
2018-01-14T00:33:03.119Z,50.20
2018-01-14T00:35:30.695Z,47.53
2018-01-14T00:37:58.296Z,52.20
2018-01-14T00:40:25.852Z,54.17
2018-01-14T00:42:53.762Z,53.53
2018-01-14T00:45:21.312Z,49.20
2018-01-14T00:47:48.875Z,54.20
2018-01-14T00:50:16.466Z,50.87
2018-01-14T00:52:44.690Z,54.60
2018-01-14T00:55:13.149Z,46.83
2018-01-14T00:57:40.829Z,55.13
2018-01-14T01:00:08.375Z,55.33
2018-01-14T01:02:35.948Z,63.37
2018-01-14T01:05:03.521Z,55.70
2018-01-14T01:07:31.106Z,52.03
2018-01-14T01:09:58.796Z,57.07
2018-01-14T01:12:27.445Z,65.70
2018-01-14T01:14:54.993Z,57.07
2018-01-14T01:17:22.529Z,63.07
2018-01-14T01:19:50.192Z,111.37
2018-01-14T01:22:17.737Z,58.17
2018-01-14T01:24:46.081Z,53.27
2018-01-14T01:27:13.612Z,58.07
2018-01-14T01:29:41.365Z,53.50
2018-01-14T01:32:09.088Z,55.37
2018-01-14T01:34:36.817Z,53.93
2018-01-14T01:37:04.358Z,57.30
2018-01-14T01:39:32.344Z,53.63
2018-01-14T01:41:59.877Z,72.80
2018-01-14T01:44:27.413Z,53.50
2018-01-14T01:46:55.005Z,65.43
2018-01-14T01:49:22.557Z,56.60
2018-01-14T01:51:50.276Z,62.70
2018-01-14T01:54:18.580Z,51.30
2018-01-14T01:56:46.581Z,60.30
2018-01-14T01:59:14.125Z,56.73
2018-01-14T02:01:41.677Z,58.43
2018-01-14T02:04:09.253Z,54.70
2018-01-14T02:06:36.793Z,61.00
2018-01-14T02:09:04.381Z,59.63
2018-01-14T02:11:31.921Z,63.97
2018-01-14T02:13:59.802Z,60.00
2018-01-14T02:16:27.356Z,57.53
2018-01-14T02:18:54.910Z,49.40
2018-01-14T02:21:22.517Z,59.60
2018-01-14T02:23:50.045Z,61.13
2018-01-14T02:26:17.905Z,60.53
2018-01-14T02:28:45.537Z,61.47
2018-01-14T02:31:13.076Z,56.57
2018-01-14T02:33:41.417Z,58.83
2018-01-14T02:36:08.994Z,60.73
2018-01-14T02:38:36.609Z,53.67
2018-01-14T02:41:04.153Z,59.10
2018-01-14T02:43:31.730Z,61.33
2018-01-14T02:45:59.283Z,59.03
2018-01-14T02:48:27.116Z,57.33
2018-01-14T02:50:55.437Z,63.53
2018-01-14T02:53:23.013Z,59.97
2018-01-14T02:55:50.594Z,60.57
2018-01-14T02:58:18.150Z,57.00
2018-01-14T03:00:46.649Z,65.23
2018-01-14T03:03:14.960Z,68.87
2018-01-14T03:05:42.537Z,59.10
2018-01-14T03:08:10.078Z,62.53
2018-01-14T03:10:38.066Z,69.10
2018-01-14T03:13:05.605Z,57.80
2018-01-14T03:15:33.143Z,66.23
2018-01-14T03:18:00.777Z,56.03
2018-01-14T03:20:28.318Z,55.67
2018-01-14T03:22:56.167Z,52.63
2018-01-14T03:25:23.769Z,57.27
2018-01-14T03:27:51.303Z,56.03
2018-01-14T03:30:19.133Z,71.60
2018-01-14T03:32:46.675Z,50.73
2018-01-14T03:35:14.264Z,55.83
2018-01-14T03:37:41.814Z,58.43
2018-01-14T03:40:09.394Z,54.17
2018-01-14T03:42:37.073Z,60.53
2018-01-14T03:45:04.799Z,61.83
2018-01-14T03:47:32.328Z,55.67
2018-01-14T03:49:59.912Z,57.83
2018-01-14T03:52:27.445Z,63.03
2018-01-14T03:54:55.361Z,60.23
2018-01-14T03:57:22.938Z,64.53
2018-01-14T03:59:50.501Z,67.57
2018-01-14T04:02:19.001Z,64.30
2018-01-14T04:04:46.549Z,64.20
2018-01-14T04:07:14.130Z,55.27
2018-01-14T04:09:42.459Z,56.57
2018-01-14T04:12:10.448Z,64.33
2018-01-14T04:14:38.765Z,55.47
2018-01-14T04:17:07.080Z,58.87
2018-01-14T04:19:34.688Z,53.97
2018-01-14T04:22:02.997Z,59.80
2018-01-14T04:24:30.576Z,54.63
2018-01-14T04:26:58.121Z,54.90
2018-01-14T04:29:26.132Z,64.57
2018-01-14T04:31:53.686Z,67.93
2018-01-14T04:34:21.257Z,60.47
2018-01-14T04:36:48.834Z,55.33
2018-01-14T04:39:16.367Z,57.33
2018-01-14T04:41:43.953Z,57.03
2018-01-14T04:44:11.499Z,65.97
2018-01-14T04:46:39.336Z,69.60
2018-01-14T04:49:06.886Z,57.87
2018-01-14T04:51:34.860Z,68.37
2018-01-14T04:54:02.414Z,57.17
2018-01-14T04:56:29.965Z,59.20
2018-01-14T04:58:57.536Z,55.37
2018-01-14T05:01:25.135Z,59.60
2018-01-14T05:03:53.472Z,69.87
2018-01-14T05:06:21.014Z,49.93
2018-01-14T05:08:48.910Z,58.80
2018-01-14T05:11:16.469Z,64.73
2018-01-14T05:13:44.026Z,51.33
2018-01-14T05:16:11.702Z,59.67
2018-01-14T05:18:40.004Z,56.13
2018-01-14T05:23:42.091Z,62.97
2018-01-14T05:26:10.737Z,73.97
2018-01-14T05:28:38.285Z,48.57
2018-01-14T05:31:05.852Z,53.80
2018-01-14T05:33:33.429Z,59.80
2018-01-14T05:36:01.737Z,54.57
2018-01-14T05:38:29.337Z,48.03
2018-01-14T05:40:56.877Z,54.47
2018-01-14T05:43:24.464Z,61.43
2018-01-14T05:45:52.010Z,54.17
2018-01-14T05:48:19.884Z,53.33
2018-01-14T05:50:47.433Z,53.63
2018-01-14T05:53:14.978Z,56.13
2018-01-14T05:55:42.555Z,56.77
2018-01-14T05:58:10.100Z,53.93
2018-01-14T06:00:37.668Z,61.83
2018-01-14T06:03:05.232Z,53.00
2018-01-14T06:05:33.079Z,50.90
2018-01-14T06:08:00.649Z,53.10
2018-01-14T06:10:28.200Z,63.53
2018-01-14T06:12:55.787Z,65.90
2018-01-14T06:15:23.337Z,58.83
2018-01-14T06:17:51.206Z,53.27
2018-01-14T06:20:18.755Z,58.27
2018-01-14T06:22:46.303Z,50.73
2018-01-14T06:25:13.877Z,55.00
2018-01-14T06:27:41.448Z,53.73
2018-01-14T06:30:09.054Z,52.60
2018-01-14T06:32:36.614Z,47.03
2018-01-14T06:35:04.979Z,57.17
2018-01-14T06:37:32.544Z,52.63
2018-01-14T06:40:01.189Z,49.10
2018-01-14T06:42:28.738Z,50.63
2018-01-14T06:44:56.274Z,57.20
2018-01-14T06:47:23.850Z,48.17
2018-01-14T06:49:51.405Z,54.73
2018-01-14T06:52:18.989Z,54.23
2018-01-14T06:54:46.723Z,48.77
2018-01-14T06:57:14.321Z,55.93
2018-01-14T06:59:41.875Z,64.63
2018-01-14T07:02:09.723Z,58.97
2018-01-14T07:04:37.292Z,60.17
2018-01-14T07:07:04.856Z,51.23
2018-01-14T07:09:32.453Z,58.27
2018-01-14T07:11:59.994Z,46.70
2018-01-14T07:14:28.337Z,61.40
2018-01-14T07:16:55.889Z,55.73
2018-01-14T07:19:23.468Z,52.73
2018-01-14T07:21:51.026Z,59.97
2018-01-14T07:24:18.893Z,53.10
2018-01-14T07:26:46.448Z,51.17
2018-01-14T07:29:14.010Z,60.17
2018-01-14T07:31:41.588Z,50.50
2018-01-14T07:34:09.147Z,52.67
2018-01-14T07:36:36.854Z,60.37
2018-01-14T07:39:04.388Z,50.43
2018-01-14T07:41:32.305Z,48.90
2018-01-14T07:43:59.944Z,67.10
2018-01-14T07:46:27.497Z,57.53
2018-01-14T07:48:55.080Z,58.57
2018-01-14T07:51:22.737Z,66.13
2018-01-14T07:53:50.325Z,57.80
2018-01-14T07:56:17.871Z,58.67
2018-01-14T07:58:45.450Z,57.53
2018-01-14T08:01:13.004Z,56.40
2018-01-14T08:03:40.864Z,58.70
2018-01-14T08:06:08.410Z,70.60
2018-01-14T08:08:35.966Z,60.17
2018-01-14T08:11:03.541Z,58.30
2018-01-14T08:13:31.093Z,56.43
2018-01-14T08:15:58.682Z,57.83
2018-01-14T08:18:26.226Z,57.50
2018-01-14T08:20:54.343Z,52.77
2018-01-14T08:23:22.668Z,63.63
2018-01-14T08:25:50.213Z,52.80
2018-01-14T08:28:17.812Z,57.80
2018-01-14T08:30:45.369Z,57.30
2018-01-14T08:33:13.737Z,60.47
2018-01-14T08:35:41.281Z,56.10
2018-01-14T08:38:09.259Z,55.17
2018-01-14T08:40:36.813Z,58.60
2018-01-14T08:43:04.363Z,63.60
2018-01-14T08:45:31.942Z,52.93
2018-01-14T08:47:59.522Z,49.03
2018-01-14T08:50:27.117Z,57.37
2018-01-14T08:52:54.657Z,56.23
2018-01-14T08:55:23.066Z,58.33
2018-01-14T08:57:50.601Z,68.10
2018-01-14T09:00:18.529Z,52.93
2018-01-14T09:02:46.141Z,55.30
2018-01-14T09:05:13.699Z,60.33
2018-01-14T09:07:41.334Z,57.70
2018-01-14T09:10:08.927Z,51.93
2018-01-14T09:12:36.555Z,46.53
2018-01-14T09:15:04.109Z,54.57
2018-01-14T09:17:32.793Z,55.00
2018-01-14T09:20:00.342Z,61.93
2018-01-14T09:22:27.911Z,46.90
2018-01-14T09:24:55.478Z,49.57
2018-01-14T09:27:23.046Z,51.83
2018-01-14T09:29:51.431Z,44.70
2018-01-14T09:32:18.983Z,48.90
2018-01-14T09:34:47.631Z,50.83
2018-01-14T09:37:15.178Z,48.50
2018-01-14T09:39:42.729Z,41.80
2018-01-14T09:42:10.337Z,44.27
2018-01-14T09:44:38.756Z,54.50
2018-01-14T09:47:06.350Z,36.73
2018-01-14T09:49:33.902Z,47.77
2018-01-14T09:52:01.968Z,58.57
2018-01-14T09:54:29.522Z,45.93
2018-01-14T09:56:57.133Z,49.43
2018-01-14T09:59:25.494Z,54.00
2018-01-14T10:01:53.066Z,41.10
2018-01-14T10:04:21.434Z,45.93
2018-01-14T10:06:48.988Z,46.87
2018-01-14T10:09:16.616Z,48.57
2018-01-14T10:11:44.475Z,34.80
2018-01-14T10:14:12.383Z,45.23
2018-01-14T10:16:39.958Z,42.40
2018-01-14T10:19:07.710Z,44.10
2018-01-14T10:21:36.059Z,42.23
2018-01-14T10:24:03.612Z,41.13
2018-01-14T10:26:31.383Z,46.33
2018-01-14T10:28:58.945Z,46.03
2018-01-14T10:31:26.545Z,40.13
2018-01-14T10:33:54.105Z,48.17
2018-01-14T10:36:22.765Z,42.97
2018-01-14T10:38:50.540Z,41.93
2018-01-14T10:41:18.106Z,41.40
2018-01-14T10:43:46.470Z,41.10
2018-01-14T10:46:15.524Z,45.90
2018-01-14T10:48:43.147Z,46.17
2018-01-14T10:51:11.961Z,36.97
2018-01-14T10:53:39.568Z,40.83
2018-01-14T10:56:07.154Z,37.97
2018-01-14T10:58:35.817Z,42.37
2018-01-14T11:01:03.546Z,39.97
2018-01-14T11:03:31.170Z,40.17
2018-01-14T11:05:59.503Z,39.53
2018-01-14T11:08:27.081Z,41.13
2018-01-14T11:10:54.706Z,39.67
2018-01-14T11:13:22.276Z,36.40
2018-01-14T11:15:50.275Z,46.03
2018-01-14T11:18:17.864Z,45.57
2018-01-14T11:20:45.431Z,39.77
2018-01-14T11:23:13.072Z,35.77
2018-01-14T11:25:41.418Z,38.73
2018-01-14T11:28:09.029Z,48.70
2018-01-14T11:30:37.354Z,43.57
2018-01-14T11:33:05.322Z,26.67
2018-01-14T11:35:32.885Z,39.33
2018-01-14T11:38:00.445Z,61.33
2018-01-14T11:40:28.087Z,43.80
2018-01-14T11:42:55.643Z,36.47
2018-01-14T11:45:23.254Z,35.70
2018-01-14T11:47:50.797Z,50.40
2018-01-14T11:50:18.411Z,40.83
2018-01-14T11:52:45.989Z,40.90
2018-01-14T11:55:15.642Z,40.00
2018-01-14T11:57:43.197Z,32.83
2018-01-14T12:00:10.784Z,48.10
2018-01-14T12:02:38.566Z,40.53
2018-01-14T12:05:06.136Z,40.53
2018-01-14T12:07:33.725Z,37.20
2018-01-14T12:10:02.052Z,34.70
2018-01-14T12:12:29.659Z,48.37
2018-01-14T12:17:31.368Z,33.47
2018-01-14T12:19:59.688Z,43.13
2018-01-14T12:22:27.244Z,41.70
2018-01-14T12:24:54.879Z,43.30
2018-01-14T12:27:22.431Z,42.13
2018-01-14T12:29:50.040Z,37.23
2018-01-14T12:32:17.625Z,41.20
2018-01-14T12:34:45.227Z,51.03
2018-01-14T12:37:12.791Z,40.90
2018-01-14T12:39:40.823Z,41.83
2018-01-14T12:42:09.149Z,40.30
2018-01-14T12:44:36.726Z,42.10
2018-01-14T12:47:04.354Z,49.03
2018-01-14T12:49:31.930Z,40.90
2018-01-14T12:51:59.526Z,46.37
2018-01-14T12:54:27.098Z,50.93
2018-01-14T12:56:54.920Z,40.17
2018-01-14T12:59:22.485Z,50.60
2018-01-14T13:01:50.053Z,41.67
2018-01-14T13:04:17.979Z,46.37
2018-01-14T13:06:45.541Z,49.17
2018-01-14T13:09:13.100Z,43.30
2018-01-14T13:11:40.728Z,43.83
2018-01-14T13:14:08.288Z,39.70
2018-01-14T13:16:36.995Z,31.13
2018-01-14T13:19:04.590Z,35.77
2018-01-14T13:21:32.144Z,38.97
2018-01-14T13:23:59.743Z,48.03
2018-01-14T13:26:28.081Z,29.37
2018-01-14T13:28:55.718Z,39.27
2018-01-14T13:31:23.288Z,36.87
2018-01-14T13:33:51.268Z,42.40
2018-01-14T13:36:18.838Z,39.67
2018-01-14T13:38:46.404Z,44.60
2018-01-14T13:41:14.022Z,40.83
2018-01-14T13:43:41.581Z,46.27
2018-01-14T13:46:10.209Z,39.20
2018-01-14T13:48:37.784Z,53.43
2018-01-14T13:51:06.885Z,37.93
2018-01-14T13:53:34.490Z,45.43
2018-01-14T13:56:08.710Z,37.03
2018-01-14T13:58:36.314Z,33.00
2018-01-14T14:01:03.877Z,48.50
2018-01-14T14:03:31.491Z,33.57
2018-01-14T14:05:59.069Z,41.13
2018-01-14T14:08:26.957Z,43.83
2018-01-14T14:10:54.528Z,38.80
2018-01-14T14:13:22.089Z,36.30
2018-01-14T14:15:50.456Z,35.33
2018-01-14T14:18:18.034Z,33.03
2018-01-14T14:20:45.748Z,35.27
2018-01-14T14:23:13.324Z,41.17
2018-01-14T14:25:41.174Z,38.23
2018-01-14T14:28:08.728Z,39.27
2018-01-14T14:30:36.740Z,40.30
2018-01-14T14:33:05.116Z,46.10
2018-01-14T14:35:32.642Z,41.03
2018-01-14T14:38:00.261Z,39.90
2018-01-14T14:40:27.821Z,50.43
2018-01-14T14:42:55.538Z,44.57
2018-01-14T14:45:23.105Z,43.53
2018-01-14T14:47:50.993Z,44.83
2018-01-14T14:50:18.569Z,41.00
2018-01-14T14:52:46.133Z,49.73
2018-01-14T14:55:14.508Z,44.33
2018-01-14T14:57:42.091Z,42.17
2018-01-14T15:00:09.858Z,49.37
2018-01-14T15:02:37.429Z,41.77
2018-01-14T15:05:05.245Z,45.70
2018-01-14T15:07:32.863Z,47.80
2018-01-14T15:10:00.421Z,44.10
2018-01-14T15:12:28.021Z,47.80
2018-01-14T15:14:55.590Z,47.17
2018-01-14T15:17:23.203Z,44.57
2018-01-14T15:19:50.779Z,47.80
2018-01-14T15:22:18.402Z,42.30
2018-01-14T15:24:45.948Z,49.07
2018-01-14T15:27:14.810Z,47.17
2018-01-14T15:29:42.376Z,43.20
2018-01-14T15:32:09.943Z,45.50
2018-01-14T15:34:38.332Z,43.23
2018-01-14T15:37:06.041Z,50.00
2018-01-14T15:39:33.807Z,51.07
2018-01-14T15:42:01.376Z,41.00
2018-01-14T15:44:29.421Z,42.40
2018-01-14T15:46:56.985Z,44.23
2018-01-14T15:49:24.551Z,48.70
2018-01-14T15:51:52.171Z,39.40
2018-01-14T15:54:19.767Z,46.43
2018-01-14T15:56:47.400Z,50.70
2018-01-14T15:59:15.690Z,45.00
2018-01-14T16:01:43.290Z,46.73
2018-01-14T16:04:10.850Z,44.70
2018-01-14T16:06:38.812Z,49.17
2018-01-14T16:09:06.377Z,46.27
2018-01-14T16:11:33.949Z,47.57
2018-01-14T16:14:01.568Z,42.80
2018-01-14T16:16:29.149Z,50.23
2018-01-14T16:18:56.759Z,47.23
2018-01-14T16:21:25.301Z,53.33
2018-01-14T16:23:53.299Z,49.20
2018-01-14T16:26:21.665Z,45.20
2018-01-14T16:28:49.239Z,47.97
2018-01-14T16:31:17.618Z,48.40
2018-01-14T16:33:45.174Z,47.90
2018-01-14T16:36:13.545Z,52.17
2018-01-14T16:38:41.113Z,47.57
2018-01-14T16:41:12.419Z,47.70
2018-01-14T16:43:40.003Z,45.23
2018-01-14T16:46:08.249Z,55.90
2018-01-14T16:48:35.878Z,45.97
2018-01-14T16:51:05.323Z,51.20
2018-01-14T16:53:33.004Z,50.37
2018-01-14T16:56:00.597Z,55.80
2018-01-14T16:58:28.188Z,46.50
2018-01-14T17:00:55.769Z,51.20
2018-01-14T17:03:23.851Z,56.17
2018-01-14T17:05:51.427Z,52.13
2018-01-14T17:08:19.009Z,52.20
2018-01-14T17:10:47.513Z,51.40
2018-01-14T17:13:15.073Z,56.37
2018-01-14T17:15:42.711Z,55.23
2018-01-14T17:18:10.266Z,57.27
2018-01-14T17:20:38.786Z,55.20
2018-01-14T17:23:06.347Z,55.90
2018-01-14T17:25:34.234Z,52.50
2018-01-14T17:28:01.842Z,51.03
2018-01-14T17:30:29.401Z,50.23
2018-01-14T17:32:56.999Z,54.87
2018-01-14T17:35:24.590Z,55.70
2018-01-14T17:37:52.550Z,56.33
2018-01-14T17:40:20.121Z,55.97
2018-01-14T17:42:47.869Z,56.63
2018-01-14T17:45:15.477Z,56.43
2018-01-14T17:47:43.097Z,61.27
2018-01-14T17:50:11.104Z,49.87
2018-01-14T17:52:38.634Z,63.80
2018-01-14T17:55:06.268Z,61.77
2018-01-14T17:57:36.801Z,58.40
2018-01-14T18:00:04.883Z,54.87
2018-01-14T18:02:32.472Z,51.80
2018-01-14T18:05:00.051Z,50.17
2018-01-14T18:07:27.673Z,53.70
2018-01-14T18:09:55.230Z,56.73
2018-01-14T18:12:23.179Z,60.77
2018-01-14T18:14:50.814Z,53.83
2018-01-14T18:17:25.517Z,53.50
2018-01-14T18:19:53.929Z,58.33
2018-01-14T18:22:21.474Z,55.33
2018-01-14T18:24:49.150Z,60.20
2018-01-14T18:27:16.764Z,50.73
2018-01-14T18:29:45.129Z,47.13
2018-01-14T18:32:12.909Z,62.27
2018-01-14T18:34:40.739Z,53.83
2018-01-14T18:37:08.302Z,53.40
2018-01-14T18:39:35.865Z,59.87
2018-01-14T18:42:04.968Z,52.23
2018-01-14T18:44:32.535Z,55.70
2018-01-14T18:47:00.887Z,57.07
2018-01-14T18:49:28.455Z,52.47
2018-01-14T18:51:56.064Z,54.30
2018-01-14T18:54:23.731Z,49.90
2018-01-14T18:56:52.532Z,64.03
2018-01-14T18:59:20.120Z,55.07
2018-01-14T19:01:47.708Z,59.07
2018-01-14T19:04:15.332Z,58.10
2018-01-14T19:06:43.291Z,50.07
2018-01-14T19:09:10.939Z,55.50
2018-01-14T19:11:38.505Z,56.40
2018-01-14T19:14:06.392Z,49.10
2018-01-14T19:16:33.983Z,50.67
2018-01-14T19:19:01.549Z,58.97
2018-01-14T19:21:29.912Z,55.97
2018-01-14T19:23:57.501Z,57.03
2018-01-14T19:26:25.871Z,58.70
2018-01-14T19:28:53.700Z,44.27
2018-01-14T19:31:21.296Z,52.87
2018-01-14T19:33:49.642Z,46.27
2018-01-14T19:36:17.718Z,50.20
2018-01-14T19:38:45.267Z,61.50
2018-01-14T19:41:12.837Z,55.80
2018-01-14T19:43:40.420Z,53.90
2018-01-14T19:46:08.739Z,52.50
2018-01-14T19:48:36.332Z,51.03
2018-01-14T19:51:03.878Z,53.40
2018-01-14T19:53:31.843Z,48.17
2018-01-14T19:55:59.405Z,56.43
2018-01-14T19:58:27.024Z,53.50
2018-01-14T20:00:54.637Z,51.27
2018-01-14T20:03:22.190Z,50.53
2018-01-14T20:05:50.413Z,55.80
2018-01-14T20:08:18.753Z,53.00
2018-01-14T20:10:46.723Z,63.23
2018-01-14T20:13:14.401Z,47.27
2018-01-14T20:15:41.942Z,46.33
2018-01-14T20:18:09.588Z,51.53
2018-01-14T20:20:37.157Z,57.13
2018-01-14T20:23:04.769Z,55.40
2018-01-14T20:25:32.380Z,47.70
2018-01-14T20:28:00.354Z,53.83
2018-01-14T20:30:27.913Z,52.80
2018-01-14T20:32:56.373Z,52.40
2018-01-14T20:35:23.980Z,45.63
2018-01-14T20:37:52.319Z,46.17
2018-01-14T20:40:19.929Z,52.60
2018-01-14T20:42:47.537Z,44.70
2018-01-14T20:45:15.412Z,49.03
2018-01-14T20:47:43.044Z,56.17
2018-01-14T20:50:10.602Z,50.33
2018-01-14T20:52:38.293Z,44.37
2018-01-14T20:55:05.822Z,50.03
2018-01-14T20:57:33.456Z,45.97
2018-01-14T21:00:01.202Z,47.57
2018-01-14T21:02:29.276Z,52.57
2018-01-14T21:04:57.084Z,46.07
2018-01-14T21:07:24.655Z,41.07
2018-01-14T21:09:52.268Z,40.13
2018-01-14T21:12:20.611Z,32.77
2018-01-14T21:14:48.355Z,38.13
2018-01-14T21:17:15.943Z,30.20
2018-01-14T21:19:43.923Z,24.43
2018-01-14T21:22:12.282Z,19.23
2018-01-14T21:24:40.053Z,33.13
2018-01-14T21:27:07.685Z,16.00
2018-01-14T21:29:35.246Z,11.97
2018-01-14T21:32:02.938Z,12.70
2018-01-14T21:34:30.503Z,13.37
2018-01-14T21:36:58.094Z,11.90
2018-01-14T21:39:25.702Z,11.67
2018-01-14T21:41:54.404Z,14.57
2018-01-14T21:44:21.989Z,11.90
2018-01-14T21:46:50.320Z,12.63
2018-01-14T21:49:17.924Z,13.90
2018-01-14T21:51:46.272Z,14.67
2018-01-14T21:54:13.899Z,12.13
2018-01-14T21:56:41.480Z,18.17
2018-01-14T21:59:09.337Z,18.43
2018-01-14T22:01:36.935Z,11.87
2018-01-14T22:04:04.541Z,11.80
2018-01-14T22:06:32.904Z,17.87
2018-01-14T22:09:00.596Z,14.93
2018-01-14T22:11:28.490Z,15.37
2018-01-14T22:13:56.051Z,13.60
2018-01-14T22:16:25.126Z,12.77
2018-01-14T22:18:52.734Z,13.40
2018-01-14T22:21:21.053Z,11.70
2018-01-14T22:23:48.682Z,14.67
2018-01-14T22:26:17.827Z,25.30
2018-01-14T22:28:45.703Z,16.73
2018-01-14T22:31:13.268Z,14.43
2018-01-14T22:33:40.817Z,15.10
2018-01-14T22:36:08.486Z,12.67
2018-01-14T22:38:36.117Z,15.10
2018-01-14T22:41:03.681Z,14.20
2018-01-14T22:43:31.230Z,13.47
2018-01-14T22:45:59.140Z,14.40
2018-01-14T22:48:26.692Z,13.80
2018-01-14T22:50:54.240Z,17.10
2018-01-14T22:53:21.833Z,14.20
2018-01-14T22:55:49.380Z,17.83
2018-01-14T22:58:17.237Z,16.87
2018-01-14T23:00:44.793Z,17.30
2018-01-14T23:03:12.527Z,16.73
2018-01-14T23:05:40.127Z,44.80
2018-01-14T23:08:10.161Z,18.60
2018-01-14T23:10:37.765Z,19.07
2018-01-14T23:13:05.321Z,19.30
2018-01-14T23:15:33.256Z,18.50
2018-01-14T23:18:00.811Z,18.40
2018-01-14T23:20:29.302Z,17.70
2018-01-14T23:22:57.711Z,16.87
2018-01-14T23:25:25.277Z,24.40
2018-01-14T23:27:53.479Z,17.50
2018-01-14T23:30:21.269Z,17.73
2018-01-14T23:32:48.868Z,18.83
2018-01-14T23:35:16.462Z,15.20
2018-01-14T23:37:44.036Z,17.67
2018-01-14T23:40:11.757Z,19.73
2018-01-14T23:42:39.315Z,23.43
2018-01-14T23:45:07.293Z,21.97
2018-01-14T23:47:34.862Z,19.00
2018-01-14T23:50:02.400Z,18.60
2018-01-14T23:52:29.969Z,20.80
2018-01-14T23:54:57.515Z,18.40
2018-01-14T23:57:25.118Z,20.90
2018-01-14T23:59:52.668Z,18.07
